Latest Weather Observations for Richmond

IDQ60801

Issued at 10:22 am EST Thursday 21 November 2019 (issued every 10 minutes, with the page automatically refreshed every 10 minutes)

About weather observations | Map of weather stations | Latest weather observations for QLD | Other Formats
Station Details ID: 030161 Name: RICHMOND AIRPORT Lat: -20.70 Lon: 143.12 Height: 206.3 m
Data from the previous 72 hours. | See also: Recent months at Richmond
Date/Time
EST
Temp
°C
App
Temp
°C
Dew
Point
°C
Rel
Hum
%
Delta-T
°C
Wind Press
QNH
hPa
Press
MSL
hPa
Rain since
9am
mm
Dir  Spd
km/h
Gust
km/h
Spd
kts
Gust
kts
21/10:00am 36.0 31.1 7.1 17 16.2 N 22 32 12 17 1012.4 1010.9 0.0
21/09:30am 35.8 31.1 7.8 18 15.8 NNW 22 33 12 18 1012.7 1011.3 0.0
21/09:00am 35.1 30.8 8.0 19 15.3 NNW 20 32 11 17 1012.8 1011.4 1.6
21/08:30am 34.1 28.9 7.2 19 15.0 N 24 30 13 16 1012.9 1011.5 1.6
21/08:00am 33.8 29.6 8.4 21 14.4 N 20 30 11 16 1012.8 1011.4 1.6
21/07:30am 32.2 28.2 9.1 24 13.1 N 20 30 11 16 1012.6 1011.2 1.6
21/07:00am 30.9 28.8 11.3 30 11.5 NNE 13 17 7 9 1012.2 1010.7 1.6
21/06:30am 29.3 27.8 11.8 34 10.2 NNE 11 15 6 8 1011.8 1010.3 1.6
21/06:00am 28.6 26.9 11.2 34 10.1 NNE 11 15 6 8 1011.4 1009.9 1.6
21/05:30am 28.6 26.5 11.2 34 10.1 NNE 13 17 7 9 1010.9 1009.4 1.6
21/05:00am 29.4 26.1 11.0 32 10.6 NNE 19 22 10 12 1010.3 1008.8 1.6
21/04:30am 29.4 26.1 11.0 32 10.6 NNE 19 26 10 14 1009.6 1008.1 1.6
21/04:00am 29.8 26.4 11.3 32 10.8 NNE 20 26 11 14 1009.2 1007.8 1.6
21/03:30am 30.2 26.9 11.7 32 10.8 NNE 20 26 11 14 1009.1 1007.7 1.6
21/03:00am 30.0 27.0 12.0 33 10.6 NNE 19 24 10 13 1008.9 1007.5 1.6
21/02:30am 29.6 27.4 12.1 34 10.3 NE 15 22 8 12 1008.7 1007.3 1.6
21/02:00am 29.3 27.4 11.8 34 10.3 NE 13 19 7 10 1009.0 1007.6 1.6
21/01:30am 30.0 27.4 12.0 33 10.6 NE 17 22 9 12 1009.0 1007.6 1.6
21/01:00am 29.7 26.6 11.7 33 10.6 NE 19 28 10 15 1009.0 1007.6 1.6
21/12:30am 29.9 27.7 10.9 31 11.0 N 13 17 7 9 1009.0 1007.6 1.6
21/12:00am 30.8 28.3 11.2 30 11.5 N 15 20 8 11 1009.5 1008.0 1.6
 
Date/Time
EST
Temp
°C
App
Temp
°C
Dew
Point
°C
Rel
Hum
%
Delta-T
°C
Wind Press
QNH
hPa
Press
MSL
hPa
Rain since
9am
mm
Dir  Spd
km/h
Gust
km/h
Spd
kts
Gust
kts
20/11:30pm 31.0 28.8 10.9 29 11.7 N 13 19 7 10 1009.7 1008.2 1.6
20/11:00pm 31.4 29.2 10.7 28 12.0 N 13 19 7 10 1009.7 1008.2 1.6
20/10:30pm 31.7 28.9 11.5 29 11.9 NNW 17 20 9 11 1009.6 1008.1 1.6
20/10:00pm 30.4 28.9 11.9 32 10.9 W 11 13 6 7 1009.2 1007.8 1.6
20/09:30pm 31.1 29.8 12.5 32 11.1 WSW 11 15 6 8 1008.8 1007.4 1.6
20/09:00pm 31.1 29.5 12.9 32 10.9 WSW 13 17 7 9 1008.7 1007.3 1.6
20/08:30pm 31.8 29.4 12.6 31 11.5 SW 17 22 9 12 1008.7 1007.3 1.6
20/08:00pm 31.8 28.8 12.1 30 11.7 SSW 19 24 10 13 1008.5 1007.1 1.6
20/07:30pm 33.7 31.2 10.9 25 13.4 NNE 15 20 8 11 1007.5 1006.0 1.6
20/07:00pm 33.2 29.9 11.7 27 12.8 N 20 28 11 15 1006.9 1005.4 1.6
20/06:30pm 34.3 30.2 11.4 25 13.6 NNE 24 32 13 17 1006.9 1005.4 1.6
20/06:00pm 34.4 30.9 12.1 26 13.4 NE 22 32 12 17 1006.9 1005.4 1.6
20/05:30pm 35.1 29.9 12.7 26 13.6 NE 32 48 17 26 1006.9 1005.4 1.6
20/05:00pm 36.2 31.4 11.8 23 14.7 NE 28 57 15 31 1006.4 1004.9 1.6
20/04:59pm 36.2 32.0 11.1 22 15.0 NE 24 57 13 31 1006.3 1004.8 1.6
20/04:56pm 37.7 36.0 12.3 22 15.5 ENE 13 46 7 25 1006.3 1004.8 1.6
20/04:30pm 37.9 36.9 11.1 20 16.1 SW 7 9 4 5 1005.6 1004.1 1.6
20/04:00pm 34.0 32.1 12.9 28 12.8 SW 15 20 8 11 1005.6 1004.1 1.6
20/03:30pm 32.3 26.6 13.0 31 11.6 S 35 69 19 37 1005.8 1004.3 1.4
20/03:23pm 29.8 25.2 14.7 39 9.3 SE 32 69 17 37 1005.5 1004.0 1.2
20/03:22pm 29.7 25.2 13.9 38 9.6 SE 30 69 16 37 1005.7 1004.2 0.8
20/03:14pm 35.4 33.9 13.0 26 13.7 S 13 46 7 25 1006.0 1004.5 0.0
20/03:00pm 39.5 37.2 9.0 16 17.9 N 11 19 6 10 1006.1 1004.6 0.0
20/02:30pm 41.6 38.3 9.7 15 19.0 NNW 17 26 9 14 1006.4 1004.9 0.0
20/02:00pm 39.6 36.9 9.1 16 17.9 NNW 13 20 7 11 1007.1 1005.6 0.0
20/01:30pm 39.8 36.8 9.2 16 18.0 NNE 15 28 8 15 1007.6 1006.1 0.0
20/01:00pm 40.1 36.5 10.4 17 17.8 NNW 20 32 11 17 1008.2 1006.8 0.0
20/12:30pm 39.6 36.0 11.7 19 17.0 N 22 37 12 20 1008.8 1007.4 0.0
20/12:00pm 38.9 36.4 11.1 19 16.8 NW 15 30 8 16 1009.2 1007.8 0.0
20/11:30am 38.1 34.9 11.2 20 16.2 NNW 19 32 10 17 1009.7 1008.2 0.0
20/11:00am 38.5 35.2 11.5 20 16.3 NNW 20 35 11 19 1010.1 1008.6 0.0
20/10:30am 37.8 33.4 11.7 21 15.8 NW 26 33 14 18 1010.3 1008.8 0.0
20/10:00am 38.1 35.1 12.0 21 15.9 NNW 19 30 10 16 1010.7 1009.2 0.0
20/09:30am 36.6 32.5 11.4 22 15.1 NNW 24 32 13 17 1010.8 1009.3 0.0
20/09:00am 36.0 31.9 11.6 23 14.6 NNW 24 35 13 19 1010.9 1009.4 0.2
20/08:30am 34.9 30.6 10.7 23 14.3 NNW 24 32 13 17 1011.0 1009.5 0.2
20/08:00am 33.8 30.5 11.6 26 13.2 N 20 28 11 15 1011.0 1009.5 0.2
20/07:30am 32.3 30.8 12.0 29 12.1 NNE 11 13 6 7 1010.9 1009.4 0.2
20/07:00am 30.0 27.9 11.0 31 11.0 NNE 13 15 7 8 1010.5 1009.0 0.2
20/06:30am 28.2 25.9 10.4 33 10.1 NNE 13 15 7 8 1010.1 1008.6 0.2
20/06:00am 26.8 25.2 10.1 35 9.4 NE 9 11 5 6 1009.8 1008.3 0.2
20/05:30am 27.9 25.3 10.6 34 9.9 NNE 15 17 8 9 1009.2 1007.8 0.2
20/05:00am 28.4 26.6 11.0 34 10.0 NE 11 13 6 7 1008.8 1007.4 0.2
20/04:30am 30.1 27.8 11.6 32 10.8 N 15 19 8 10 1008.3 1006.9 0.2
20/04:00am 29.9 28.7 14.0 37 9.7 N 13 19 7 10 1007.8 1006.3 0.2
20/03:30am 29.5 26.7 11.5 33 10.5 NNE 17 22 9 12 1007.8 1006.3 0.2
20/03:00am 30.5 27.8 12.9 34 10.6 NNW 19 26 10 14 1007.3 1005.8 0.2
20/02:30am 30.0 27.0 10.5 30 11.2 NNW 17 20 9 11 1007.4 1005.9 0.2
20/02:00am 29.0 25.1 7.0 25 11.9 NW 17 20 9 11 1007.4 1005.9 0.2
20/01:30am 28.2 24.0 7.4 27 11.3 NW 19 24 10 13 1007.5 1006.0 0.2
20/01:00am 30.0 28.2 7.8 25 12.2 SE 7 11 4 6 1007.3 1005.8 0.2
20/12:30am 29.3 25.7 6.7 24 12.2 SSE 15 17 8 9 1007.6 1006.1 0.2
20/12:00am 32.1 28.0 6.3 20 14.0 SE 17 20 9 11 1008.0 1006.5 0.2
 
Date/Time
EST
Temp
°C
App
Temp
°C
Dew
Point
°C
Rel
Hum
%
Delta-T
°C
Wind Press
QNH
hPa
Press
MSL
hPa
Rain since
9am
mm
Dir  Spd
km/h
Gust
km/h
Spd
kts
Gust
kts
19/11:30pm 34.0 29.2 5.5 17 15.4 SSW 20 24 11 13 1008.1 1006.7 0.2
19/11:00pm 34.4 30.0 7.5 19 15.1 SSW 20 26 11 14 1008.1 1006.7 0.2
19/10:30pm 34.3 30.9 5.8 17 15.5 S 13 17 7 9 1008.2 1006.8 0.2
19/10:00pm 34.7 31.9 8.4 20 15.0 SSW 13 17 7 9 1008.4 1007.0 0.2
19/09:30pm 37.0 32.3 6.1 15 17.1 SW 20 30 11 16 1008.3 1006.9 0.0
19/09:00pm 37.2 31.0 6.3 15 17.2 SSW 28 54 15 29 1008.0 1006.5 0.0
19/08:55pm 36.5 30.6 5.7 15 16.9 S 26 54 14 29 1008.0 1006.5 0.0
19/08:53pm 36.7 31.2 5.9 15 17.0 S 24 54 13 29 1007.9 1006.4 0.0
19/08:30pm 38.0 30.8 5.9 14 17.8 SSE 33 59 18 32 1007.9 1006.4 0.0
19/08:23pm 37.7 31.4 5.6 14 17.7 SSE 28 48 15 26 1008.0 1006.5 0.0
19/08:00pm 36.9 28.6 6.0 15 17.1 SSE 39 52 21 28 1007.9 1006.4 0.0
19/07:35pm 35.7 29.7 6.9 17 16.1 SSE 28 46 15 25 1007.8 1006.3 0.0
19/07:30pm 37.0 31.9 6.1 15 17.1 SSE 22 33 12 18 1007.7 1006.2 0.0
19/07:00pm 37.4 30.7 7.3 16 17.1 SE 32 43 17 23 1007.1 1005.6 0.0
19/06:52pm 37.0 31.7 7.0 16 16.9 ESE 24 44 13 24 1007.2 1005.7 0.0
19/06:30pm 38.4 35.8 6.2 14 18.0 N 9 15 5 8 1006.8 1005.3 0.0
19/06:00pm 38.9 34.5 6.6 14 18.3 N 19 30 10 16 1006.5 1005.0 0.0
19/05:50pm 39.2 36.0 6.8 14 18.3 NNW 13 39 7 21 1006.3 1004.8 0.0
19/05:30pm 40.7 38.3 6.9 13 19.3 WNW 9 19 5 10 1006.1 1004.6 0.0
19/05:00pm 40.7 38.3 6.9 13 19.3 SW 9 15 5 8 1005.9 1004.4 0.0
19/04:30pm 39.7 37.9 7.2 14 18.6 ESE 6 13 3 7 1005.8 1004.3 0.0
19/04:00pm 39.5 37.4 8.1 15 18.2 E 9 15 5 8 1006.0 1004.5 0.0
19/03:30pm 40.0 37.3 7.4 14 18.7 N 11 20 6 11 1006.3 1004.8 0.0
19/03:00pm 41.0 37.5 7.1 13 19.5 SSW 15 20 8 11 1006.5 1005.0 0.0
19/02:30pm 40.2 36.8 7.6 14 18.8 NW 15 24 8 13 1006.9 1005.4 0.0
19/02:00pm 39.5 37.4 8.1 15 18.2 SE 9 20 5 11 1007.4 1005.9 0.0
19/01:30pm 40.5 38.1 8.8 15 18.6 W 11 19 6 10 1007.8 1006.3 0.0
19/01:00pm 40.7 38.4 9.0 15 18.7 NNW 11 22 6 12 1008.4 1007.0 0.0
19/12:30pm 40.0 36.3 9.4 16 18.1 NW 19 30 10 16 1008.7 1007.3 0.0
19/12:00pm 40.1 36.4 9.5 16 18.1 NNW 19 37 10 20 1009.3 1007.9 0.0
19/11:30am 39.3 36.1 11.4 19 16.9 NNW 19 32 10 17 1009.8 1008.3 0.0
19/11:00am 38.6 34.5 11.6 20 16.4 NNW 24 35 13 19 1010.3 1008.8 0.0
19/10:30am 38.0 34.3 12.6 22 15.6 NNW 24 33 13 18 1010.7 1009.2 0.0
19/10:00am 38.0 34.5 13.3 23 15.3 N 24 35 13 19 1010.9 1009.4 0.0
19/09:30am 36.6 32.5 12.8 24 14.6 NNW 26 37 14 20 1011.3 1009.8 0.0
19/09:00am 35.4 30.8 12.4 25 13.9 NNW 28 39 15 21 1011.4 1009.9 0.0
19/08:30am 33.9 29.7 9.9 23 13.9 N 22 33 12 18 1011.5 1010.0 0.0
19/08:00am 31.4 28.5 6.5 21 13.5 NNE 11 17 6 9 1011.5 1010.0 0.0
19/07:30am 29.1 25.9 3.1 19 13.1 ENE 9 11 5 6 1011.4 1009.9 0.0
19/07:00am 26.0 21.4 -0.9 17 12.4 E 13 17 7 9 1011.2 1009.7 0.0
19/06:30am 24.3 19.9 -2.3 17 11.8 E 11 13 6 7 1010.8 1009.3 0.0
19/06:00am 23.1 18.3 -2.5 18 11.2 E 13 13 7 7 1010.4 1008.9 0.0
19/05:30am 23.3 18.4 -3.1 17 11.4 E 13 15 7 8 1010.1 1008.6 0.0
19/05:00am 23.8 18.9 -3.5 16 11.8 E 13 15 7 8 1009.9 1008.4 0.0
19/04:30am 23.7 18.8 -3.6 16 11.7 ESE 13 15 7 8 1009.7 1008.2 0.0
19/04:00am 23.8 18.5 -3.5 16 11.8 E 15 15 8 8 1009.5 1008.0 0.0
19/03:30am 23.1 18.5 -4.1 16 11.5 ESE 11 13 6 7 1009.5 1008.0 0.0
19/03:00am 24.9 20.7 -3.5 15 12.4 ESE 9 13 5 7 1009.3 1007.9 0.0
19/02:30am 25.3 20.4 -3.2 15 12.5 ESE 13 20 7 11 1009.3 1007.9 0.0
19/02:00am 26.4 20.8 -3.2 14 13.1 SE 17 20 9 11 1009.5 1008.0 0.0
19/01:30am 27.7 21.6 -2.2 14 13.6 ESE 20 35 11 19 1010.2 1008.7 0.0
19/01:00am 27.4 21.4 -3.4 13 13.7 SE 19 24 10 13 1009.7 1008.2 0.0
19/12:30am 26.9 20.9 -2.8 14 13.3 SE 19 20 10 11 1009.9 1008.4 0.0
19/12:00am 26.4 20.6 -4.2 13 13.3 SSE 17 19 9 10 1010.1 1008.6 0.0
 
Date/Time
EST
Temp
°C
App
Temp
°C
Dew
Point
°C
Rel
Hum
%
Delta-T
°C
Wind Press
QNH
hPa
Press
MSL
hPa
Rain since
9am
mm
Dir  Spd
km/h
Gust
km/h
Spd
kts
Gust
kts
18/11:30pm 27.6 21.5 -4.3 12 14.0 SSE 19 24 10 13 1010.3 1008.8 0.0
18/11:00pm 27.7 21.9 -4.3 12 14.1 SSE 17 19 9 10 1010.5 1009.0 0.0
18/10:30pm 28.5 22.4 -3.6 12 14.4 SSE 19 20 10 11 1010.5 1009.0 0.0
18/10:00pm 27.7 21.7 -3.2 13 13.9 S 19 20 10 11 1010.4 1008.9 0.0
18/09:30pm 27.6 22.2 -4.3 12 14.0 S 15 17 8 9 1010.3 1008.8 0.0
18/09:00pm 30.1 24.0 -3.6 11 15.3 S 19 20 10 11 1010.1 1008.6 0.0
18/08:30pm 30.5 24.9 -3.3 11 15.4 S 17 20 9 11 1009.9 1008.4 0.0
18/08:00pm 32.0 26.3 -3.4 10 16.4 S 17 19 9 10 1009.6 1008.1 0.0
18/07:30pm 31.9 26.2 -3.5 10 16.3 S 17 19 9 10 1009.2 1007.8 0.0
18/07:00pm 33.9 28.2 -3.4 9 17.5 S 17 19 9 10 1009.1 1007.7 0.0
18/06:30pm 37.5 32.0 -2.3 8 19.4 SSE 17 22 9 12 1008.8 1007.4 0.0
18/06:00pm 39.3 34.5 -2.8 7 20.7 SSE 13 20 7 11 1008.5 1007.1 0.0
18/05:30pm 40.3 35.6 -2.1 7 21.1 S 13 19 7 10 1008.4 1007.0 0.0
18/05:00pm 41.0 36.3 -1.6 7 21.5 SSW 13 24 7 13 1008.2 1006.8 0.0
18/04:30pm 40.4 35.7 -2.0 7 21.2 SSE 13 26 7 14 1008.1 1006.7 0.0
18/04:00pm 40.6 36.3 -1.9 7 21.3 NE 11 19 6 10 1008.2 1006.8 0.0
18/03:30pm 41.2 36.6 -1.4 7 21.6 SE 13 20 7 11 1008.4 1007.0 0.0
18/03:00pm 41.3 35.9 -1.4 7 21.7 SSE 17 30 9 16 1008.6 1007.2 0.0
18/02:30pm 40.2 35.5 -2.1 7 21.1 SSW 13 24 7 13 1009.0 1007.6 0.0
18/02:00pm 41.0 35.9 -1.6 7 21.5 W 15 26 8 14 1009.6 1008.1 0.0
18/01:30pm 40.9 34.5 -1.6 7 21.4 WNW 22 30 12 16 1010.1 1008.6 0.0
18/01:00pm 40.5 35.4 -1.9 7 21.2 SW 15 28 8 15 1010.6 1009.1 0.0
18/12:30pm 40.7 36.0 -1.8 7 21.3 SE 13 26 7 14 1011.0 1009.5 0.0
18/12:00pm 40.0 35.9 -0.5 8 20.7 ENE 11 17 6 9 1011.5 1010.0 0.0
18/11:30am 39.0 34.4 -1.2 8 20.2 ESE 13 22 7 12 1011.9 1010.4 0.0
18/11:00am 38.7 33.3 -1.4 8 20.0 ESE 17 24 9 13 1012.3 1010.8 0.0
18/10:30am 37.9 32.6 -0.4 9 19.3 ENE 17 22 9 12 1012.6 1011.2 0.0

Other formats

Comma delimited format used in spreadsheet applications
http://www.bom.gov.au/fwo/IDQ60801/IDQ60801.94341.axf

JavaScript Object Notation format (JSON) in row-major order
http://www.bom.gov.au/fwo/IDQ60801/IDQ60801.94341.json

Data quality

Most of these data are generated automatically and are frequently updated. Quality checks on data are not normally performed. It is possible for incorrect values to appear. Refer to information at About Latest Weather Observations and please check the disclaimer before using these data.